Time;durP1;ratioP1;P1;durP2;ratioP2;P2;SDS_P1;SDS_P2;PMS_P1;PMS_P2;Temp;Humidity;BMP_temperature;BMP_pressure;BME280_temperature;BME280_humidity;BME280_pressure;Samples;Min_cycle;Max_cycle;Signal;HPM_P1;HPM_P2
2021/01/19 00:00:20;;;;;;;;;;;;;;;22.18;17.12;98392.81;5123941;28;1910;-76
2021/01/19 00:02:45;;;;;;;;;;;;;;;21.95;17.46;98380.31;5122850;28;844;-75
2021/01/19 00:05:11;;;;;;;;;;;;;;;21.65;17.50;98387.03;5122744;28;997;-76
2021/01/19 00:07:37;;;;;;;;;;;;;;;21.80;17.28;98393.97;5123863;28;1014;-76
2021/01/19 00:10:02;;;;;;;;;;;;;;;21.94;17.21;98386.44;5123724;28;709;-76
2021/01/19 00:12:28;;;;;;;;;;;;;;;21.59;17.55;98383.09;5123956;28;598;-75
2021/01/19 00:14:54;;;;;;;;;;;;;;;22.05;17.17;98384.16;5123635;28;605;-76
2021/01/19 00:17:19;;;;;;;;;;;;;;;21.62;17.64;98379.41;5122385;28;1034;-76
2021/01/19 00:19:45;;;;;;;;;;;;;;;21.75;17.42;98379.53;5123019;28;1901;-76
2021/01/19 00:22:10;;;;;;;;;;;;;;;21.44;17.52;98381.78;5122575;28;911;-76
2021/01/19 00:24:36;;;;;;;;;;;;;;;21.67;17.18;98386.59;5123413;28;670;-76
2021/01/19 00:27:01;;;;;;;;;;;;;;;21.22;18.00;98390.69;5122307;28;888;-76
2021/01/19 00:29:27;;;;;;;;;;;;;;;21.55;17.64;98385.22;5123140;28;649;-76
2021/01/19 00:31:53;;;;;;;;;;;;;;;21.79;17.35;98395.22;5123455;28;908;-76
2021/01/19 00:34:20;;;;;;;;;;;;;;;21.96;16.85;98383.94;5122772;28;894;-76
2021/01/19 00:36:46;;;;;;;;;;;;;;;22.43;16.53;98397.88;5122553;28;963;-76
2021/01/19 00:39:11;;;;;;;;;;;;;;;21.93;16.96;98394.13;5122861;28;1898;-76
2021/01/19 00:41:37;;;;;;;;;;;;;;;22.12;17.09;98389.69;5123281;28;634;-76
2021/01/19 00:44:02;;;;;;;;;;;;;;;21.79;17.45;98385.94;5122463;28;1527;-76
2021/01/19 00:46:28;;;;;;;;;;;;;;;21.85;17.36;98384.97;5123068;28;1041;-75
2021/01/19 00:48:53;;;;;;;;;;;;;;;21.90;17.29;98382.88;5122459;28;913;-75
2021/01/19 00:51:19;;;;;;;;;;;;;;;22.08;17.21;98383.28;5122740;28;900;-76
2021/01/19 00:53:45;;;;;;;;;;;;;;;22.08;16.98;98383.28;5122298;28;957;-76
2021/01/19 00:56:11;;;;;;;;;;;;;;;22.35;16.53;98383.09;5122730;28;1019;-76
2021/01/19 00:58:37;;;;;;;;;;;;;;;22.01;16.71;98383.44;5121700;28;1209;-76
2021/01/19 01:01:02;;;;;;;;;;;;;;;21.67;17.37;98381.72;5105051;28;1909;-76
2021/01/19 01:03:29;;;;;;;;;;;;;;;21.56;17.24;98393.28;5122082;28;940;-76
2021/01/19 01:05:56;;;;;;;;;;;;;;;21.36;17.60;98394.50;5122795;28;927;-76
2021/01/19 01:08:21;;;;;;;;;;;;;;;21.80;17.11;98393.97;5122572;28;610;-76
2021/01/19 01:10:47;;;;;;;;;;;;;;;21.68;17.26;98397.50;5122862;28;641;-76
2021/01/19 01:13:12;;;;;;;;;;;;;;;22.27;16.65;98388.13;5122318;28;721;-76
2021/01/19 01:15:37;;;;;;;;;;;;;;;22.03;16.90;98401.59;5122506;27;922;-76
2021/01/19 01:18:10;;;;;;;;;;;;;;;21.70;17.16;98397.84;5104204;28;901;-76
2021/01/19 01:20:36;;;;;;;;;;;;;;;22.05;16.96;98398.31;5121854;28;1984;-76
2021/01/19 01:23:02;;;;;;;;;;;;;;;22.01;16.75;98389.09;5122239;28;692;-76
2021/01/19 01:25:28;;;;;;;;;;;;;;;21.91;16.73;98399.41;5122403;28;676;-76
2021/01/19 01:27:53;;;;;;;;;;;;;;;21.61;17.23;98400.47;5122449;28;602;-76
2021/01/19 01:30:19;;;;;;;;;;;;;;;21.43;17.23;98405.69;5121107;28;936;-76
2021/01/19 01:32:45;;;;;;;;;;;;;;;21.67;17.13;98403.59;5121243;28;888;-76
2021/01/19 01:35:11;;;;;;;;;;;;;;;22.04;16.58;98416.56;5121253;28;1038;-76
2021/01/19 01:37:42;;;;;;;;;;;;;;;21.54;17.09;98412.72;5122146;28;682;-76
2021/01/19 01:40:08;;;;;;;;;;;;;;;21.53;17.09;98407.50;5121274;28;1918;-76
2021/01/19 01:42:33;;;;;;;;;;;;;;;21.64;17.00;98402.41;5122080;28;668;-76
2021/01/19 01:44:59;;;;;;;;;;;;;;;21.85;16.76;98410.47;5121535;28;834;-76
2021/01/19 01:47:25;;;;;;;;;;;;;;;22.00;16.74;98415.84;5121993;28;872;-76
2021/01/19 01:49:54;;;;;;;;;;;;;;;21.75;16.60;98419.19;5121643;28;811;-76
2021/01/19 01:52:20;;;;;;;;;;;;;;;21.56;16.83;98409.47;5122102;28;625;-76
2021/01/19 01:54:49;;;;;;;;;;;;;;;21.68;17.05;98405.97;5121691;28;1012;-76
2021/01/19 01:57:14;;;;;;;;;;;;;;;21.85;16.68;98401.19;5121697;28;626;-76
2021/01/19 01:59:40;;;;;;;;;;;;;;;22.32;16.34;98393.25;5120288;28;1976;-76
2021/01/19 02:02:09;;;;;;;;;;;;;;;21.69;16.60;98396.25;5103390;28;1184;-76
2021/01/19 02:04:34;;;;;;;;;;;;;;;21.77;16.52;98397.72;5120693;28;1097;-76
2021/01/19 02:07:00;;;;;;;;;;;;;;;21.84;16.63;98397.53;5121556;28;622;-76
2021/01/19 02:09:26;;;;;;;;;;;;;;;21.70;16.74;98392.16;5120480;28;689;-76
2021/01/19 02:12:18;;;;;;;;;;;;;;;22.27;16.29;98390.94;5120692;28;693;-76
2021/01/19 02:14:50;;;;;;;;;;;;;;;21.61;16.70;98394.81;5118897;28;1046;-76
2021/01/19 02:17:15;;;;;;;;;;;;;;;21.63;16.85;98385.88;5120554;28;837;-76
2021/01/19 02:20:00;;;;;;;;;;;;;;;21.45;16.73;98389.06;5121166;28;1913;-75
2021/01/19 02:22:25;;;;;;;;;;;;;;;21.63;16.66;98386.66;5121376;28;629;-76
2021/01/19 02:24:50;;;;;;;;;;;;;;;22.00;16.52;98385.47;5121067;28;641;-76
2021/01/19 02:27:34;;;;;;;;;;;;;;;21.79;16.54;98392.41;5121354;28;701;-76
2021/01/19 02:30:10;;;;;;;;;;;;;;;21.53;16.87;98390.50;5120108;28;996;-76
2021/01/19 02:32:44;;;;;;;;;;;;;;;22.33;15.87;98394.88;5120886;28;960;-76
2021/01/19 02:35:09;;;;;;;;;;;;;;;21.78;16.39;98393.63;5103486;28;865;-76
2021/01/19 02:37:43;;;;;;;;;;;;;;;22.65;15.55;98401.81;5121047;28;665;-76
2021/01/19 02:40:08;;;;;;;;;;;;;;;21.89;16.54;98404.72;5120033;28;1906;-76
2021/01/19 02:42:34;;;;;;;;;;;;;;;22.06;16.29;98402.75;5120697;28;664;-76
2021/01/19 02:45:02;;;;;;;;;;;;;;;21.90;16.16;98405.53;5119786;28;987;-76
2021/01/19 02:47:27;;;;;;;;;;;;;;;21.82;16.39;98411.34;5119993;28;875;-76
2021/01/19 02:49:53;;;;;;;;;;;;;;;21.84;16.27;98403.22;5120698;28;860;-76
2021/01/19 02:52:18;;;;;;;;;;;;;;;21.50;16.76;98397.03;5120719;28;658;-75
2021/01/19 02:54:43;;;;;;;;;;;;;;;22.23;15.94;98395.94;5119764;28;1004;-76
2021/01/19 02:57:18;;;;;;;;;;;;;;;21.96;16.08;98404.56;5120769;28;653;-75
2021/01/19 02:59:56;;;;;;;;;;;;;;;21.71;16.52;98399.47;5120118;28;1898;-75
2021/01/19 03:02:22;;;;;;;;;;;;;;;21.32;16.85;98403.84;5119750;28;856;-75
2021/01/19 03:04:47;;;;;;;;;;;;;;;22.24;15.97;98403.19;5119627;28;720;-76
2021/01/19 03:07:13;;;;;;;;;;;;;;;21.78;16.30;98396.47;5120769;28;693;-76
2021/01/19 03:09:39;;;;;;;;;;;;;;;22.20;15.65;98391.13;5119706;28;878;-76
2021/01/19 03:12:05;;;;;;;;;;;;;;;21.70;16.21;98386.50;5120539;28;661;-76
2021/01/19 03:14:30;;;;;;;;;;;;;;;21.78;16.13;98376.63;5119376;28;872;-76
2021/01/19 03:17:03;;;;;;;;;;;;;;;21.87;16.04;98369.59;5119587;28;1299;-76
2021/01/19 03:19:28;;;;;;;;;;;;;;;22.01;15.99;98374.94;5120249;28;1960;-76
2021/01/19 03:21:54;;;;;;;;;;;;;;;21.27;16.56;98366.75;5120273;28;614;-76
2021/01/19 03:24:19;;;;;;;;;;;;;;;21.48;16.56;98368.38;5120470;28;661;-75
2021/01/19 03:26:44;;;;;;;;;;;;;;;22.07;15.47;98361.81;5120508;28;721;-76
2021/01/19 03:29:10;;;;;;;;;;;;;;;21.74;15.84;98364.59;5119853;28;930;-76
2021/01/19 03:31:35;;;;;;;;;;;;;;;21.81;15.95;98350.28;5120467;28;926;-76
2021/01/19 03:34:01;;;;;;;;;;;;;;;21.82;16.05;98354.72;5120150;28;994;-76
2021/01/19 03:36:26;;;;;;;;;;;;;;;21.63;16.08;98346.22;5120444;28;656;-76
2021/01/19 03:38:51;;;;;;;;;;;;;;;21.66;16.09;98351.81;5119904;28;1905;-76
2021/01/19 03:41:17;;;;;;;;;;;;;;;21.81;15.90;98346.63;5120657;28;649;-76
2021/01/19 03:43:42;;;;;;;;;;;;;;;21.55;16.31;98351.22;5119683;28;1020;-76
2021/01/19 03:46:08;;;;;;;;;;;;;;;21.20;16.36;98349.91;5120209;28;853;-76
2021/01/19 03:48:33;;;;;;;;;;;;;;;21.54;16.18;98349.63;5119987;28;895;-77
2021/01/19 03:50:59;;;;;;;;;;;;;;;21.75;15.85;98352.00;5120766;28;641;-76
2021/01/19 03:53:24;;;;;;;;;;;;;;;21.79;15.93;98349.91;5121264;28;649;-77
2021/01/19 03:55:50;;;;;;;;;;;;;;;21.70;15.92;98355.34;5124307;28;1000;-76
2021/01/19 03:58:15;;;;;;;;;;;;;;;22.15;15.26;98349.13;5123720;28;1040;-76
2021/01/19 04:00:41;;;;;;;;;;;;;;;21.18;16.54;98350.31;5123741;28;1973;-76
2021/01/19 04:03:06;;;;;;;;;;;;;;;21.46;16.36;98353.88;5123874;28;807;-76
2021/01/19 04:05:31;;;;;;;;;;;;;;;21.12;16.53;98346.41;5124031;28;641;-76
2021/01/19 04:07:57;;;;;;;;;;;;;;;21.66;16.00;98351.81;5123867;28;664;-76
2021/01/19 04:10:22;;;;;;;;;;;;;;;21.68;15.93;98355.00;5123804;28;613;-76
2021/01/19 04:12:48;;;;;;;;;;;;;;;21.47;16.29;98355.47;5123606;28;1049;-76
2021/01/19 04:15:13;;;;;;;;;;;;;;;21.48;15.93;98362.72;5123329;28;889;-77
2021/01/19 04:17:39;;;;;;;;;;;;;;;21.61;16.26;98366.50;5123085;28;1074;-76
2021/01/19 04:20:07;;;;;;;;;;;;;;;21.90;15.82;98355.34;5123512;28;1902;-77
2021/01/19 04:22:33;;;;;;;;;;;;;;;21.52;15.97;98357.78;5124083;28;693;-76
2021/01/19 04:24:58;;;;;;;;;;;;;;;21.99;15.95;98354.75;5123297;28;598;-76
2021/01/19 04:27:24;;;;;;;;;;;;;;;21.94;15.93;98364.56;5123281;28;1039;-77
2021/01/19 04:29:49;;;;;;;;;;;;;;;21.93;15.60;98353.66;5123183;28;810;-76
2021/01/19 04:32:15;;;;;;;;;;;;;;;21.84;16.02;98366.38;5123726;28;971;-76
2021/01/19 04:34:40;;;;;;;;;;;;;;;21.50;16.17;98360.22;5122650;28;645;-76
2021/01/19 04:37:06;;;;;;;;;;;;;;;21.26;16.30;98363.09;5122959;28;677;-76
2021/01/19 04:39:31;;;;;;;;;;;;;;;21.60;16.07;98359.22;5123281;28;1902;-77
2021/01/19 04:41:57;;;;;;;;;;;;;;;21.88;15.98;98357.81;5122421;28;951;-76
2021/01/19 04:44:24;;;;;;;;;;;;;;;21.37;16.18;98354.44;5121975;28;833;-76
2021/01/19 04:46:49;;;;;;;;;;;;;;;21.31;16.33;98354.16;5123091;28;823;-76
2021/01/19 04:49:15;;;;;;;;;;;;;;;21.50;16.22;98365.91;5123350;28;705;-76
2021/01/19 04:51:40;;;;;;;;;;;;;;;22.07;15.53;98353.31;5122775;28;625;-76
2021/01/19 04:54:07;;;;;;;;;;;;;;;22.17;15.26;98363.66;5120901;28;1423;-78
2021/01/19 04:56:32;;;;;;;;;;;;;;;22.31;15.45;98366.16;5123808;28;598;-78
2021/01/19 04:58:58;;;;;;;;;;;;;;;21.73;15.83;98373.53;5105058;28;1909;-78
2021/01/19 05:01:35;;;;;;;;;;;;;;;21.47;16.21;98383.78;5139745;27;1005;-78
2021/01/19 05:04:13;;;;;;;;;;;;;;;22.21;15.57;98389.88;5122741;28;881;-78
2021/01/19 05:06:41;;;;;;;;;;;;;;;21.52;16.11;98395.38;5123482;28;605;-78
2021/01/19 05:09:07;;;;;;;;;;;;;;;22.06;15.60;98395.03;5123069;28;688;-78
2021/01/19 05:11:33;;;;;;;;;;;;;;;21.74;15.85;98392.91;5123468;28;653;-78
2021/01/19 05:13:58;;;;;;;;;;;;;;;21.91;15.58;98399.41;5139565;27;610;-78
2021/01/19 05:16:35;;;;;;;;;;;;;;;21.67;16.11;98387.41;5123328;28;917;-78
2021/01/19 05:19:01;;;;;;;;;;;;;;;21.79;15.93;98389.56;5138803;27;1974;-78
2021/01/19 05:21:26;;;;;;;;;;;;;;;21.61;16.00;98394.81;5123120;28;613;-78
2021/01/19 05:23:53;;;;;;;;;;;;;;;22.04;15.87;98393.91;5122726;28;589;-77
2021/01/19 05:26:19;;;;;;;;;;;;;;;21.71;16.01;98399.47;5137858;27;1634;-78
2021/01/19 05:28:49;;;;;;;;;;;;;;;21.61;16.25;98394.03;5104626;28;1551;-78
2021/01/19 05:31:14;;;;;;;;;;;;;;;21.66;16.12;98397.13;5138960;27;1553;-78
2021/01/19 05:33:40;;;;;;;;;;;;;;;21.82;15.99;98400.03;5121989;28;885;-78
2021/01/19 05:36:09;;;;;;;;;;;;;;;22.00;15.72;98398.84;5104848;28;968;-77
2021/01/19 05:38:44;;;;;;;;;;;;;;;21.55;16.49;98402.19;5122592;28;646;-78
2021/01/19 05:41:10;;;;;;;;;;;;;;;21.38;16.30;98409.81;5122778;28;1910;-78
2021/01/19 05:43:35;;;;;;;;;;;;;;;22.34;15.63;98390.81;5138474;27;705;-78
2021/01/19 05:46:01;;;;;;;;;;;;;;;21.69;16.22;98406.78;5139126;27;834;-77
2021/01/19 05:48:35;;;;;;;;;;;;;;;22.00;15.72;98398.84;5121718;28;950;-78
2021/01/19 05:51:00;;;;;;;;;;;;;;;22.25;15.21;98410.44;5139708;27;635;-78
2021/01/19 05:53:26;;;;;;;;;;;;;;;21.81;16.01;98404.09;5138417;27;666;-77
2021/01/19 05:55:59;;;;;;;;;;;;;;;21.79;15.82;98417.09;5136836;27;1554;-77
2021/01/19 05:58:25;;;;;;;;;;;;;;;21.46;16.15;98427.47;5137908;27;1447;-77
2021/01/19 06:00:52;;;;;;;;;;;;;;;22.16;15.57;98417.94;5138265;27;1941;-77
2021/01/19 06:03:18;;;;;;;;;;;;;;;21.35;16.39;98422.03;5138740;27;909;-77
2021/01/19 06:05:44;;;;;;;;;;;;;;;22.18;15.50;98421.97;5122312;28;951;-78
2021/01/19 06:08:10;;;;;;;;;;;;;;;21.85;15.84;98427.47;5122085;28;630;-77
2021/01/19 06:10:35;;;;;;;;;;;;;;;21.54;16.28;98417.59;5122319;28;673;-77
2021/01/19 06:13:00;;;;;;;;;;;;;;;21.62;16.13;98423.94;5121426;28;745;-77
2021/01/19 06:15:27;;;;;;;;;;;;;;;21.69;16.06;98427.41;5137669;27;1091;-78
2021/01/19 06:17:52;;;;;;;;;;;;;;;21.49;16.26;98435.09;5121686;28;906;-77
2021/01/19 06:20:18;;;;;;;;;;;;;;;21.55;16.38;98441.84;5103910;28;1905;-77
2021/01/19 06:22:43;;;;;;;;;;;;;;;21.89;16.01;98437.94;5122176;28;666;-79
2021/01/19 06:25:12;;;;;;;;;;;;;;;21.35;16.31;98446.66;5122337;28;662;-77
2021/01/19 06:27:37;;;;;;;;;;;;;;;21.39;16.52;98444.56;5104647;28;710;-77
2021/01/19 06:30:04;;;;;;;;;;;;;;;21.56;16.47;98446.28;5103261;28;1453;-77
2021/01/19 06:32:33;;;;;;;;;;;;;;;21.68;16.07;98437.13;5120351;28;1803;-77
2021/01/19 06:35:12;;;;;;;;;;;;;;;21.99;15.63;98442.59;5121443;28;876;-77
2021/01/19 06:37:37;;;;;;;;;;;;;;;21.60;16.12;98444.16;5138134;27;1635;-77
2021/01/19 06:40:04;;;;;;;;;;;;;;;21.87;16.22;98441.22;5120093;28;1978;-77
2021/01/19 06:42:30;;;;;;;;;;;;;;;22.18;15.90;98438.97;5137198;27;935;-77
2021/01/19 06:44:56;;;;;;;;;;;;;;;21.76;16.18;98440.59;5119693;28;1176;-77
2021/01/19 06:47:22;;;;;;;;;;;;;;;21.85;16.34;98443.66;5137574;27;921;-78
2021/01/19 06:49:47;;;;;;;;;;;;;;;21.79;16.03;98437.72;5121199;28;904;-77
2021/01/19 06:52:13;;;;;;;;;;;;;;;21.82;16.31;98434.03;5121953;28;641;-77
2021/01/19 06:54:59;;;;;;;;;;;;;;;21.99;16.12;98431.25;5103546;28;1125;-77
2021/01/19 06:57:43;;;;;;;;;;;;;;;21.52;16.18;98437.06;5114205;28;1031;-77
2021/01/19 07:00:09;;;;;;;;;;;;;;;21.72;16.05;98428.56;5120300;28;1906;-77
2021/01/19 07:02:35;;;;;;;;;;;;;;;21.88;16.05;98430.69;5121525;28;935;-77
2021/01/19 07:05:07;;;;;;;;;;;;;;;21.94;16.07;98434.59;5120542;28;898;-78
2021/01/19 07:07:56;;;;;;;;;;;;;;;21.94;15.92;98441.06;5138138;27;677;-78
2021/01/19 07:10:25;;;;;;;;;;;;;;;22.14;15.75;98443.91;5118254;28;1609;-77
2021/01/19 07:12:55;;;;;;;;;;;;;;;21.71;16.26;98447.59;5137950;27;621;-78
2021/01/19 07:15:21;;;;;;;;;;;;;;;21.70;16.30;98442.34;5094573;28;1626;-77
2021/01/19 07:18:02;;;;;;;;;;;;;;;21.67;16.37;98446.06;5134606;27;1506;-78
2021/01/19 07:20:31;;;;;;;;;;;;;;;21.94;15.80;98448.75;5119808;28;1902;-77
2021/01/19 07:23:00;;;;;;;;;;;;;;;21.54;16.42;98457.22;5103525;28;1657;-77
2021/01/19 07:25:26;;;;;;;;;;;;;;;21.52;16.71;98459.72;5131828;28;1608;-77
2021/01/19 07:27:51;;;;;;;;;;;;;;;21.64;16.16;98458.25;5101420;28;681;-77
2021/01/19 07:30:17;;;;;;;;;;;;;;;22.49;15.55;98452.84;5104607;28;840;-77
2021/01/19 07:32:47;;;;;;;;;;;;;;;21.92;15.75;98456.91;5117011;28;893;-78
2021/01/19 07:35:12;;;;;;;;;;;;;;;21.78;15.98;98447.44;5141275;27;1037;-77
2021/01/19 07:37:39;;;;;;;;;;;;;;;22.09;15.61;98453.69;5107362;28;1676;-77
2021/01/19 07:40:25;;;;;;;;;;;;;;;21.59;16.00;98459.56;5124806;28;1878;-77
2021/01/19 07:42:51;;;;;;;;;;;;;;;21.67;16.40;98472.38;5124763;28;860;-77
2021/01/19 07:45:16;;;;;;;;;;;;;;;21.95;15.87;98470.97;5124596;28;961;-76
2021/01/19 07:47:42;;;;;;;;;;;;;;;22.12;15.80;98468.25;5124734;28;922;-77
2021/01/19 07:50:20;;;;;;;;;;;;;;;21.96;15.85;98466.91;5090949;28;933;-77
2021/01/19 07:52:46;;;;;;;;;;;;;;;22.07;15.78;98472.34;5104575;28;637;-78
2021/01/19 07:55:29;;;;;;;;;;;;;;;21.83;16.09;98485.81;5104173;28;996;-77
2021/01/19 07:57:55;;;;;;;;;;;;;;;21.39;16.26;98484.22;5104422;28;752;-78
2021/01/19 08:00:21;;;;;;;;;;;;;;;21.40;16.46;98485.81;5122961;27;1967;-78
2021/01/19 08:02:47;;;;;;;;;;;;;;;21.83;16.29;98486.59;5104040;28;961;-78
2021/01/19 08:05:13;;;;;;;;;;;;;;;22.02;15.84;98485.03;5104203;28;935;-77
2021/01/19 08:07:39;;;;;;;;;;;;;;;22.04;15.81;98481.75;5120763;28;633;-78
2021/01/19 08:10:16;;;;;;;;;;;;;;;22.39;15.26;98500.06;5121104;27;1550;-78
2021/01/19 08:12:41;;;;;;;;;;;;;;;22.03;15.94;98489.44;5120698;28;655;-78
2021/01/19 08:15:07;;;;;;;;;;;;;;;22.00;15.67;98492.34;5119843;28;884;-78
2021/01/19 08:17:36;;;;;;;;;;;;;;;21.82;15.93;98502.00;5103827;28;936;-77
2021/01/19 08:20:04;;;;;;;;;;;;;;;21.43;16.39;98518.91;5110794;28;1960;-82
2021/01/19 08:22:29;;;;;;;;;;;;;;;22.18;15.91;98524.00;5108283;28;1547;-83
2021/01/19 08:25:01;;;;;;;;;;;;;;;22.05;15.80;98523.00;5108320;28;875;-78
2021/01/19 08:27:27;;;;;;;;;;;;;;;21.73;16.01;98521.59;5124142;28;1586;-77
2021/01/19 08:29:52;;;;;;;;;;;;;;;21.90;15.97;98524.53;5139832;27;939;-78
2021/01/19 08:32:18;;;;;;;;;;;;;;;21.97;15.81;98525.19;5139916;27;1459;-78
2021/01/19 08:38:05;;;;;;;;;;;;;;;21.94;16.07;98526.06;5122758;28;1538;-77
2021/01/19 08:40:31;;;;;;;;;;;;;;;22.03;15.88;98531.94;5105793;28;1905;-77
2021/01/19 08:42:56;;;;;;;;;;;;;;;22.08;15.94;98534.28;5123607;28;693;-78
2021/01/19 08:45:22;;;;;;;;;;;;;;;22.04;16.12;98519.38;5105437;28;941;-77
2021/01/19 08:47:49;;;;;;;;;;;;;;;21.88;15.80;98524.97;5105495;28;1538;-77
2021/01/19 08:50:15;;;;;;;;;;;;;;;21.93;15.93;98527.28;5123538;28;1523;-77
2021/01/19 08:52:41;;;;;;;;;;;;;;;22.05;15.83;98520.97;5106210;28;780;-78
2021/01/19 08:55:16;;;;;;;;;;;;;;;22.10;15.79;98516.84;5105925;28;1016;-78
2021/01/19 08:57:43;;;;;;;;;;;;;;;22.18;15.71;98514.69;5105942;28;671;-78
2021/01/19 09:00:09;;;;;;;;;;;;;;;21.99;15.91;98517.03;5105542;28;1961;-77
2021/01/19 09:02:34;;;;;;;;;;;;;;;21.94;15.83;98517.56;5123265;28;1606;-77
2021/01/19 09:05:00;;;;;;;;;;;;;;;22.01;15.98;98508.09;5105219;28;1392;-77
2021/01/19 09:07:29;;;;;;;;;;;;;;;22.22;15.78;98502.03;5123557;28;1751;-78
2021/01/19 09:09:54;;;;;;;;;;;;;;;21.99;15.88;98508.56;5105641;28;630;-77
2021/01/19 09:12:22;;;;;;;;;;;;;;;21.73;16.26;98503.81;5123424;28;685;-78
2021/01/19 09:14:48;;;;;;;;;;;;;;;22.04;16.00;98501.56;5105669;28;944;-78
2021/01/19 09:17:20;;;;;;;;;;;;;;;21.89;16.16;98506.72;5122596;28;1467;-78
2021/01/19 09:19:46;;;;;;;;;;;;;;;22.00;15.79;98495.97;5105206;28;2262;-78
2021/01/19 09:22:13;;;;;;;;;;;;;;;22.18;15.70;98495.66;5123265;28;633;-78
2021/01/19 09:24:39;;;;;;;;;;;;;;;21.85;15.95;98495.47;5139334;27;658;-78
2021/01/19 09:27:04;;;;;;;;;;;;;;;21.82;15.92;98490.69;5137528;27;1585;-78
2021/01/19 09:29:30;;;;;;;;;;;;;;;21.88;16.08;98493.00;5138809;27;1033;-78
2021/01/19 09:31:59;;;;;;;;;;;;;;;22.03;15.98;98472.44;5122844;28;872;-78
2021/01/19 09:34:25;;;;;;;;;;;;;;;22.08;15.87;98479.63;5123088;28;959;-78
2021/01/19 09:36:51;;;;;;;;;;;;;;;22.01;15.83;98474.09;5122710;28;1582;-77
2021/01/19 09:39:26;;;;;;;;;;;;;;;21.79;15.95;98457.53;5138759;27;1898;-78
2021/01/19 09:41:52;;;;;;;;;;;;;;;21.85;16.20;98472.78;5139747;27;638;-77
2021/01/19 09:44:18;;;;;;;;;;;;;;;21.99;16.07;98468.09;5120285;27;1487;-78
2021/01/19 09:46:43;;;;;;;;;;;;;;;22.12;15.93;98466.19;5101232;28;902;-78
2021/01/19 09:49:09;;;;;;;;;;;;;;;21.91;16.22;98461.75;5102016;28;1495;-78
2021/01/19 09:51:34;;;;;;;;;;;;;;;21.83;16.31;98452.63;5100692;28;933;-78
2021/01/19 09:54:00;;;;;;;;;;;;;;;21.69;16.19;98463.44;5118120;28;914;-78
2021/01/19 09:56:26;;;;;;;;;;;;;;;21.18;16.84;98466.34;5118743;28;741;-77
2021/01/19 09:59:01;;;;;;;;;;;;;;;21.27;16.61;98465.78;5136936;27;1756;-77
2021/01/19 10:01:26;;;;;;;;;;;;;;;21.69;16.22;98461.38;5138544;27;1972;-78
2021/01/19 10:03:52;;;;;;;;;;;;;;;21.70;16.42;98456.53;5138575;27;998;-78
2021/01/19 10:06:21;;;;;;;;;;;;;;;21.74;16.42;98443.88;5138581;27;915;-77
2021/01/19 10:08:51;;;;;;;;;;;;;;;21.68;16.46;98456.97;5121617;28;1569;-78
2021/01/19 10:11:32;;;;;;;;;;;;;;;21.88;16.08;98445.63;5122302;28;652;-77
2021/01/19 10:14:14;;;;;;;;;;;;;;;21.92;15.99;98428.56;5104042;28;842;-78
2021/01/19 10:16:49;;;;;;;;;;;;;;;21.91;15.94;98447.59;5122091;28;851;-78
2021/01/19 10:19:20;;;;;;;;;;;;;;;22.02;15.89;98436.84;5103883;28;1970;-78
2021/01/19 10:21:47;;;;;;;;;;;;;;;21.83;16.05;98437.66;5104516;28;633;-77
2021/01/19 10:24:16;;;;;;;;;;;;;;;21.78;16.17;98433.28;5121638;28;728;-78
2021/01/19 10:26:43;;;;;;;;;;;;;;;22.06;15.93;98433.91;5086862;28;870;-78
2021/01/19 10:29:08;;;;;;;;;;;;;;;22.02;16.06;98436.03;5121185;28;1538;-78
2021/01/19 10:31:36;;;;;;;;;;;;;;;21.85;16.11;98421.00;5121787;28;852;-78
2021/01/19 10:34:02;;;;;;;;;;;;;;;21.87;16.05;98429.09;5103888;28;861;-77
2021/01/19 10:36:29;;;;;;;;;;;;;;;21.93;16.14;98413.16;5104607;28;833;-78
2021/01/19 10:38:54;;;;;;;;;;;;;;;21.67;16.24;98404.41;5121265;28;1646;-78
2021/01/19 10:41:23;;;;;;;;;;;;;;;21.89;16.24;98406.78;5121733;28;1901;-78
2021/01/19 10:43:50;;;;;;;;;;;;;;;21.87;16.33;98403.59;5103615;28;920;-78
2021/01/19 10:46:28;;;;;;;;;;;;;;;22.06;16.06;98402.75;5121584;28;931;-78
2021/01/19 10:49:03;;;;;;;;;;;;;;;21.88;16.11;98402.34;5086972;28;1527;-78
2021/01/19 10:51:29;;;;;;;;;;;;;;;21.75;16.23;98391.66;5122115;28;645;-78
2021/01/19 10:54:02;;;;;;;;;;;;;;;22.09;16.19;98393.38;5103895;28;669;-78
2021/01/19 10:56:27;;;;;;;;;;;;;;;22.00;15.93;98393.16;5103705;28;789;-78
2021/01/19 10:58:53;;;;;;;;;;;;;;;21.96;15.94;98392.44;5103076;28;1563;-77
2021/01/19 11:01:18;;;;;;;;;;;;;;;21.73;16.14;98390.53;5120976;28;1917;-78
2021/01/19 11:03:43;;;;;;;;;;;;;;;21.90;16.02;98388.53;5127534;28;959;-78
2021/01/19 11:06:09;;;;;;;;;;;;;;;21.87;16.23;98378.88;5128732;28;602;-78
2021/01/19 11:08:34;;;;;;;;;;;;;;;21.72;16.31;98375.56;5127769;28;633;-78
2021/01/19 11:11:00;;;;;;;;;;;;;;;21.89;16.41;98369.94;5128150;28;1550;-77
2021/01/19 11:13:25;;;;;;;;;;;;;;;22.03;16.19;98380.97;5127497;28;900;-78
2021/01/19 11:15:51;;;;;;;;;;;;;;;21.93;16.04;98373.50;5128124;28;848;-77
2021/01/19 11:18:20;;;;;;;;;;;;;;;21.82;16.15;98366.03;5110195;28;945;-78
2021/01/19 11:20:45;;;;;;;;;;;;;;;21.70;16.20;98372.34;5127574;28;1910;-78
2021/01/19 11:23:11;;;;;;;;;;;;;;;21.81;16.30;98358.78;5127812;28;693;-78
2021/01/19 11:25:36;;;;;;;;;;;;;;;21.95;15.97;98362.53;5144923;27;649;-77
2021/01/19 11:28:09;;;;;;;;;;;;;;;22.23;15.98;98364.75;5128285;28;846;-81
2021/01/19 11:30:34;;;;;;;;;;;;;;;22.60;15.70;98356.97;5148206;27;1582;-81
2021/01/19 11:33:00;;;;;;;;;;;;;;;22.29;16.07;98365.81;5129738;28;940;-81
2021/01/19 11:35:26;;;;;;;;;;;;;;;21.94;16.30;98361.72;5113280;28;666;-81
2021/01/19 11:37:54;;;;;;;;;;;;;;;21.58;16.83;98356.03;5131121;28;804;-84
2021/01/19 11:40:19;;;;;;;;;;;;;;;22.58;15.94;98353.75;5114834;28;1879;-84
2021/01/19 11:42:44;;;;;;;;;;;;;;;21.05;16.04;98131.53;5114130;28;1480;-81
2021/01/19 11:45:10;;;;;;;;;;;;;;;22.56;15.91;98350.59;5131064;28;1467;-77
2021/01/19 11:47:35;;;;;;;;;;;;;;;21.67;16.77;98353.41;5132455;28;868;-82
2021/01/19 11:50:01;;;;;;;;;;;;;;;21.21;17.27;98343.00;5148910;27;784;-82
2021/01/19 11:52:26;;;;;;;;;;;;;;;21.49;16.96;98339.63;5132124;27;765;-82
2021/01/19 11:54:52;;;;;;;;;;;;;;;21.87;16.50;98346.94;5135130;27;1567;-82
2021/01/19 11:57:17;;;;;;;;;;;;;;;22.05;16.53;98342.44;5111792;28;890;-82
2021/01/19 11:59:43;;;;;;;;;;;;;;;21.94;16.50;98343.94;5127173;28;1906;-82
2021/01/19 12:02:08;;;;;;;;;;;;;;;21.87;16.67;98353.41;5110955;28;1110;-82
2021/01/19 12:04:34;;;;;;;;;;;;;;;21.84;16.43;98346.56;5134656;27;1534;-82
2021/01/19 12:06:59;;;;;;;;;;;;;;;21.93;16.40;98342.34;5115124;28;1165;-82
2021/01/19 12:09:25;;;;;;;;;;;;;;;21.83;16.27;98336.47;5132236;28;650;-82
2021/01/19 12:11:56;;;;;;;;;;;;;;;21.92;16.23;98329.41;5132474;28;884;-81
2021/01/19 12:14:23;;;;;;;;;;;;;;;21.85;16.53;98336.81;5111139;28;1539;-82
2021/01/19 12:16:52;;;;;;;;;;;;;;;21.84;16.60;98323.91;5139420;27;1494;-82
2021/01/19 12:19:17;;;;;;;;;;;;;;;21.72;16.66;98327.41;5123598;28;1980;-82
2021/01/19 12:21:47;;;;;;;;;;;;;;;21.96;16.42;98336.56;5124755;28;694;-82
2021/01/19 12:24:12;;;;;;;;;;;;;;;22.03;16.26;98327.94;5123424;28;709;-82
2021/01/19 12:26:38;;;;;;;;;;;;;;;21.93;16.43;98325.34;5125845;27;1482;-82
2021/01/19 12:29:03;;;;;;;;;;;;;;;21.87;16.15;98322.22;5107220;28;855;-82
2021/01/19 12:31:29;;;;;;;;;;;;;;;21.92;16.04;98323.75;5124488;28;826;-82
2021/01/19 12:33:54;;;;;;;;;;;;;;;21.56;16.86;98324.53;5124273;28;685;-82
2021/01/19 12:36:20;;;;;;;;;;;;;;;21.65;16.55;98326.75;5133156;27;1648;-82
2021/01/19 12:38:45;;;;;;;;;;;;;;;21.72;16.58;98327.41;5143951;27;642;-82
2021/01/19 12:41:11;;;;;;;;;;;;;;;21.92;16.35;98330.22;5110593;28;1906;-82
2021/01/19 12:43:48;;;;;;;;;;;;;;;21.82;16.35;98326.38;5127242;28;917;-81
2021/01/19 12:46:36;;;;;;;;;;;;;;;21.87;16.42;98336.41;5140914;27;1483;-82
2021/01/19 12:49:01;;;;;;;;;;;;;;;21.97;16.55;98337.41;5124035;28;690;-82
2021/01/19 12:51:27;;;;;;;;;;;;;;;21.84;16.38;98334.44;5124581;28;633;-81
2021/01/19 12:53:52;;;;;;;;;;;;;;;21.99;16.46;98334.91;5122874;28;617;-82
2021/01/19 12:56:18;;;;;;;;;;;;;;;21.80;16.41;98337.34;5108614;28;2067;-82
2021/01/19 12:58:43;;;;;;;;;;;;;;;21.94;16.28;98343.94;5116698;28;1537;-82
2021/01/19 13:01:09;;;;;;;;;;;;;;;22.02;16.45;98342.50;5124141;28;1973;-82
2021/01/19 13:03:34;;;;;;;;;;;;;;;22.00;16.40;98333.66;5122367;28;1561;-82
2021/01/19 13:06:00;;;;;;;;;;;;;;;21.83;16.42;98333.63;5124254;28;917;-82